Time;durP1;ratioP1;P1;durP2;ratioP2;P2;SDS_P1;SDS_P2;PMS_P1;PMS_P2;Temp;Humidity;BMP_temperature;BMP_pressure;BME280_temperature;BME280_humidity;BME280_pressure;Samples;Min_cycle;Max_cycle;Signal;HPM_P1;HPM_P2
2022/06/02 00:00:09;;;;;;;12.10;8.10;;;8.80;99.90;;;;;;5074891;28;20198;-68
2022/06/02 00:03:12;;;;;;;10.87;7.77;;;8.80;99.90;;;;;;5074870;28;20185;-68
2022/06/02 00:06:06;;;;;;;12.90;7.90;;;8.90;99.90;;;;;;5076084;28;20178;-68
2022/06/02 00:09:01;;;;;;;10.47;7.57;;;8.90;99.90;;;;;;5075884;28;20189;-68
2022/06/02 00:11:49;;;;;;;11.57;7.30;;;8.80;99.90;;;;;;5074547;28;20251;-68
2022/06/02 00:14:18;;;;;;;9.37;7.20;;;8.80;99.90;;;;;;5075618;28;20193;-68
2022/06/02 00:16:56;;;;;;;8.43;6.50;;;8.80;99.90;;;;;;5076022;28;20231;-68
2022/06/02 00:19:33;;;;;;;10.20;8.40;;;8.80;99.90;;;;;;5075726;28;20634;-68
2022/06/02 00:22:18;;;;;;;9.20;7.40;;;8.80;99.90;;;;;;5075718;28;20188;-68
2022/06/02 00:25:22;;;;;;;10.80;8.33;;;8.70;99.90;;;;;;5074241;28;20719;-68
2022/06/02 00:27:56;;;;;;;8.47;7.57;;;8.70;99.90;;;;;;5051387;28;20215;-68
2022/06/02 00:30:31;;;;;;;8.93;7.20;;;8.60;99.90;;;;;;5074102;28;20228;-68
2022/06/02 00:33:22;;;;;;;8.00;6.77;;;8.50;99.90;;;;;;5074259;28;20174;-68
2022/06/02 00:35:48;;;;;;;6.43;5.80;;;8.50;99.90;;;;;;5075699;28;20186;-68
2022/06/02 00:38:18;;;;;;;8.43;6.77;;;8.30;99.90;;;;;;5075838;28;20189;-68
2022/06/02 00:40:45;;;;;;;7.17;6.47;;;8.20;99.90;;;;;;5073752;28;20682;-68
2022/06/02 00:43:16;;;;;;;8.27;6.70;;;8.00;99.90;;;;;;5075260;28;20209;-68
2022/06/02 00:45:44;;;;;;;7.50;6.53;;;8.00;99.90;;;;;;5075188;28;20178;-68
2022/06/02 00:48:13;;;;;;;9.57;7.10;;;8.10;99.90;;;;;;5074009;28;20203;-68
2022/06/02 00:50:41;;;;;;;8.73;7.60;;;8.10;99.90;;;;;;5074950;28;20275;-68
2022/06/02 00:53:41;;;;;;;9.87;8.13;;;8.10;99.90;;;;;;5073801;28;20219;-68
2022/06/02 00:59:38;;;;;;;8.93;7.50;;;8.10;99.90;;;;;;5075759;28;20156;-68
2022/06/02 01:02:04;;;;;;;10.67;8.27;;;8.10;99.90;;;;;;5074873;28;20158;-67
2022/06/02 01:04:30;;;;;;;10.27;8.70;;;8.00;99.90;;;;;;5073714;28;20548;-68
2022/06/02 01:07:14;;;;;;;8.87;7.57;;;8.00;99.90;;;;;;5075297;28;20649;-67
2022/06/02 01:10:17;;;;;;;10.77;8.07;;;7.90;99.90;;;;;;5074276;28;20185;-68
2022/06/02 01:13:08;;;;;;;10.50;7.97;;;7.80;99.90;;;;;;5074665;28;20215;-68
2022/06/02 01:16:05;;;;;;;9.57;7.77;;;7.80;99.90;;;;;;5074530;28;20221;-68
2022/06/02 01:18:58;;;;;;;7.83;6.97;;;7.80;99.90;;;;;;5073303;28;20208;-68
2022/06/02 01:21:48;;;;;;;8.27;7.20;;;7.80;99.90;;;;;;5073098;28;20198;-68
2022/06/02 01:24:34;;;;;;;13.80;7.83;;;7.80;99.90;;;;;;5073087;28;20182;-68
2022/06/02 01:27:22;;;;;;;7.37;6.13;;;7.60;99.90;;;;;;5074492;28;20632;-67
2022/06/02 01:29:51;;;;;;;7.97;7.17;;;7.50;99.90;;;;;;5073127;28;20198;-68
2022/06/02 01:32:20;;;;;;;7.30;6.60;;;7.50;99.90;;;;;;5074400;28;20174;-68
2022/06/02 01:34:56;;;;;;;7.77;6.80;;;7.50;99.90;;;;;;5074136;28;20226;-68
2022/06/02 01:37:33;;;;;;;8.60;7.30;;;7.50;99.90;;;;;;5074547;28;20153;-68
2022/06/02 01:40:30;;;;;;;8.70;7.57;;;7.50;99.90;;;;;;5072165;28;20256;-68
2022/06/02 01:43:06;;;;;;;9.03;7.80;;;7.60;99.90;;;;;;5073554;28;20197;-68
2022/06/02 01:45:35;;;;;;;8.87;7.60;;;7.50;99.90;;;;;;5072665;28;20230;-68
2022/06/02 01:48:19;;;;;;;9.53;8.23;;;7.50;99.90;;;;;;5073946;28;20174;-68
2022/06/02 01:50:50;;;;;;;8.60;7.50;;;7.50;99.90;;;;;;5072582;28;20204;-67
2022/06/02 01:53:42;;;;;;;9.47;7.97;;;7.40;99.90;;;;;;5074039;28;20623;-68
2022/06/02 01:56:37;;;;;;;9.43;7.67;;;7.40;99.90;;;;;;5072233;28;20212;-68
2022/06/02 01:59:21;;;;;;;10.90;7.87;;;7.40;99.90;;;;;;5073867;28;20158;-67
2022/06/02 02:02:04;;;;;;;11.03;7.73;;;7.40;99.90;;;;;;5073840;28;20166;-68
2022/06/02 02:04:30;;;;;;;8.10;6.73;;;7.40;99.90;;;;;;5073716;28;20166;-68
2022/06/02 02:07:07;;;;;;;8.30;7.50;;;7.30;99.90;;;;;;5072396;28;20550;-68
2022/06/02 02:09:55;;;;;;;8.50;7.10;;;7.20;99.90;;;;;;5090347;28;20570;-67
2022/06/02 02:12:45;;;;;;;8.87;7.60;;;7.20;99.90;;;;;;5093970;28;20161;-68
2022/06/02 02:15:52;;;;;;;7.77;6.97;;;7.10;99.90;;;;;;5093723;28;20215;-67
2022/06/02 02:18:35;;;;;;;7.87;6.70;;;7.10;99.90;;;;;;5073667;28;20185;-68
2022/06/02 02:21:29;;;;;;;8.50;6.73;;;7.10;99.90;;;;;;5093840;28;20237;-68
2022/06/02 02:24:53;;;;;;;7.37;6.67;;;7.00;99.90;;;;;;5093659;28;20173;-68
2022/06/02 02:28:02;;;;;;;6.77;6.07;;;7.00;99.90;;;;;;5079914;28;20216;-68
2022/06/02 02:30:23;;;;;;;7.20;6.50;;;7.00;99.90;;;;;;5093584;28;20196;-68
2022/06/02 02:32:54;;;;;;;7.50;6.73;;;6.80;99.90;;;;;;5092462;28;20205;-68
2022/06/02 02:35:41;;;;;;;6.40;5.80;;;6.70;99.90;;;;;;5093586;28;20205;-67
2022/06/02 02:38:17;;;;;;;7.50;6.70;;;6.80;99.90;;;;;;5092331;28;20589;-67
2022/06/02 02:40:51;;;;;;;7.07;6.40;;;6.80;99.90;;;;;;5093772;28;20284;-67
2022/06/02 02:43:20;;;;;;;7.13;6.40;;;6.90;99.90;;;;;;5093775;28;20696;-67
2022/06/02 02:46:06;;;;;;;6.77;6.13;;;6.90;99.90;;;;;;5092560;28;20185;-68
2022/06/02 02:48:38;;;;;;;7.83;6.90;;;6.90;99.90;;;;;;5093955;28;20169;-68
2022/06/02 02:51:16;;;;;;;8.57;6.60;;;6.90;99.90;;;;;;5093695;28;20255;-68
2022/06/02 02:53:57;;;;;;;7.67;6.73;;;6.90;99.90;;;;;;5096378;28;20177;-68
2022/06/02 02:56:30;;;;;;;8.23;7.17;;;6.90;99.90;;;;;;5097079;28;20342;-68
2022/06/02 02:59:04;;;;;;;10.03;7.40;;;6.80;99.90;;;;;;5098215;28;20170;-68
2022/06/02 03:01:36;;;;;;;8.53;7.70;;;6.80;99.90;;;;;;5097555;28;20731;-68
2022/06/02 03:04:11;;;;;;;9.00;7.27;;;6.70;99.90;;;;;;5096283;28;20203;-69
2022/06/02 03:06:41;;;;;;;9.33;7.47;;;6.70;99.90;;;;;;5097453;28;20652;-69
2022/06/02 03:09:16;;;;;;;8.03;7.23;;;6.60;99.90;;;;;;5097725;28;20177;-68
2022/06/02 03:12:00;;;;;;;8.00;7.17;;;6.60;99.90;;;;;;5096116;28;20196;-68
2022/06/02 03:14:58;;;;;;;9.97;7.90;;;6.50;99.90;;;;;;5097227;28;20220;-68
2022/06/02 03:17:54;;;;;;;8.40;7.07;;;6.40;99.90;;;;;;5097608;28;20154;-68
2022/06/02 03:20:53;;;;;;;11.13;8.10;;;6.50;99.90;;;;;;5095749;28;20246;-68
2022/06/02 03:23:41;;;;;;;9.47;8.30;;;6.50;99.90;;;;;;5097329;28;20158;-68
2022/06/02 03:26:21;;;;;;;8.93;7.83;;;6.60;99.90;;;;;;5095628;28;20592;-68
2022/06/02 03:29:19;;;;;;;9.13;7.70;;;6.60;99.90;;;;;;5097068;28;20161;-68
2022/06/02 03:32:03;;;;;;;9.07;7.93;;;6.60;99.90;;;;;;5097127;28;20210;-69
2022/06/02 03:34:32;;;;;;;10.03;7.60;;;6.60;99.90;;;;;;5095717;28;20185;-68
2022/06/02 03:37:29;;;;;;;9.60;7.70;;;6.60;99.90;;;;;;5095703;28;20177;-68
2022/06/02 03:40:06;;;;;;;8.53;7.30;;;6.60;99.90;;;;;;5093228;28;20213;-68
2022/06/02 03:42:39;;;;;;;9.00;7.77;;;6.60;99.90;;;;;;5100020;28;20192;-68
2022/06/02 03:45:14;;;;;;;8.57;7.50;;;6.60;99.90;;;;;;5098879;28;20165;-68
2022/06/02 03:47:58;;;;;;;9.07;7.90;;;6.60;99.90;;;;;;5097499;28;20649;-69
2022/06/02 03:50:41;;;;;;;8.67;7.20;;;6.70;99.90;;;;;;5097336;28;20228;-68
2022/06/02 03:53:28;;;;;;;8.80;7.50;;;6.60;99.90;;;;;;5097911;28;20311;-68
2022/06/02 03:55:57;;;;;;;8.77;7.63;;;6.60;99.90;;;;;;5097033;28;20246;-68
2022/06/02 03:58:41;;;;;;;8.70;7.50;;;6.60;99.90;;;;;;5097366;28;20184;-68
2022/06/02 04:01:11;;;;;;;8.00;6.77;;;6.60;99.90;;;;;;5096672;28;20196;-68
2022/06/02 04:03:40;;;;;;;7.93;7.13;;;6.50;99.90;;;;;;5096044;28;20173;-68
2022/06/02 04:06:27;;;;;;;8.03;7.20;;;6.50;99.90;;;;;;5096712;28;20158;-68
2022/06/02 04:09:11;;;;;;;7.93;6.60;;;6.60;99.90;;;;;;5094926;28;20657;-68
2022/06/02 04:15:06;;;;;;;8.43;7.10;;;6.40;99.90;;;;;;5095963;28;20227;-68
2022/06/02 04:17:56;;;;;;;9.93;7.50;;;6.50;99.90;;;;;;5084920;28;20189;-68
2022/06/02 04:20:58;;;;;;;7.67;6.87;;;6.50;99.90;;;;;;5095849;28;20200;-68
2022/06/02 04:24:04;;;;;;;8.23;6.97;;;6.60;99.90;;;;;;5096076;28;20275;-68
2022/06/02 04:27:04;;;;;;;9.57;7.60;;;6.60;99.90;;;;;;5094304;28;20592;-68
2022/06/02 04:29:54;;;;;;;7.70;6.90;;;6.60;99.90;;;;;;5096665;28;20677;-67
2022/06/02 04:32:51;;;;;;;7.83;6.93;;;6.60;99.90;;;;;;5095159;28;20177;-67
2022/06/02 04:35:32;;;;;;;8.43;6.80;;;6.50;99.90;;;;;;5094251;28;20601;-66
2022/06/02 04:38:16;;;;;;;7.57;6.70;;;6.50;99.90;;;;;;5089412;28;20268;-67
2022/06/02 04:41:00;;;;;;;9.30;7.47;;;6.50;99.90;;;;;;5075721;28;20197;-67
2022/06/02 04:43:47;;;;;;;7.77;6.97;;;6.50;99.90;;;;;;5075478;28;20183;-68
2022/06/02 04:46:27;;;;;;;7.33;6.63;;;6.40;99.90;;;;;;5075184;28;20174;-69
2022/06/02 04:49:22;;;;;;;8.40;7.47;;;6.60;99.90;;;;;;5075006;28;20170;-68
2022/06/02 04:52:21;;;;;;;8.33;7.10;;;6.60;99.90;;;;;;5058304;28;20197;-68
2022/06/02 04:55:10;;;;;;;8.10;7.30;;;6.70;99.90;;;;;;5075085;28;20189;-68
2022/06/02 04:58:03;;;;;;;7.97;6.87;;;6.80;99.90;;;;;;5074918;28;20619;-68
2022/06/02 05:00:40;;;;;;;8.17;7.10;;;6.90;99.90;;;;;;5064366;28;20225;-68
2022/06/02 05:03:23;;;;;;;8.60;7.60;;;7.00;99.90;;;;;;5073457;28;20173;-68
2022/06/02 05:06:05;;;;;;;9.37;7.40;;;7.00;99.90;;;;;;5074653;28;20610;-68
2022/06/02 05:08:45;;;;;;;8.70;7.63;;;7.20;99.90;;;;;;5073122;28;20620;-68
2022/06/02 05:11:23;;;;;;;9.83;8.03;;;7.30;99.90;;;;;;5074231;28;20281;-67
2022/06/02 05:13:55;;;;;;;8.63;7.73;;;7.40;99.90;;;;;;5073030;28;20197;-67
2022/06/02 05:16:56;;;;;;;10.30;8.70;;;7.50;99.90;;;;;;5073405;28;20201;-68
2022/06/02 05:19:40;;;;;;;11.90;9.47;;;7.60;99.90;;;;;;5074322;28;20169;-68
2022/06/02 05:22:32;;;;;;;12.33;9.83;;;7.70;99.90;;;;;;5074251;28;20223;-68
2022/06/02 05:25:20;;;;;;;11.30;9.17;;;7.70;99.90;;;;;;5073868;28;20162;-67
2022/06/02 05:28:03;;;;;;;11.20;9.40;;;7.80;99.90;;;;;;5072885;28;20170;-68
2022/06/02 05:30:38;;;;;;;12.27;9.27;;;7.90;99.90;;;;;;5072824;28;20201;-68
2022/06/02 05:33:15;;;;;;;14.13;10.07;;;8.00;99.90;;;;;;5074818;28;20176;-68
2022/06/02 05:35:59;;;;;;;13.40;9.60;;;8.10;99.90;;;;;;5074113;28;20201;-68
2022/06/02 05:38:34;;;;;;;13.47;10.73;;;8.20;99.90;;;;;;5074321;28;20217;-68
2022/06/02 05:41:27;;;;;;;15.83;10.70;;;8.40;99.90;;;;;;5073051;28;20568;-68
2022/06/02 05:44:22;;;;;;;15.10;11.17;;;8.50;99.90;;;;;;5074606;28;20165;-68
2022/06/02 05:46:59;;;;;;;17.57;12.17;;;8.70;99.90;;;;;;5074177;28;20199;-68
2022/06/02 05:50:09;;;;;;;16.50;12.63;;;8.80;99.90;;;;;;5074278;28;20162;-68
2022/06/02 05:52:49;;;;;;;12.37;10.13;;;8.90;99.90;;;;;;5016330;28;20179;-67
2022/06/02 05:55:30;;;;;;;14.93;11.60;;;9.10;99.90;;;;;;5032371;28;20199;-67
2022/06/02 05:58:08;;;;;;;16.93;11.43;;;9.20;99.90;;;;;;5061868;28;20190;-68
2022/06/02 06:00:48;;;;;;;19.80;13.10;;;9.30;99.90;;;;;;5074079;28;20193;-68
2022/06/02 06:03:43;;;;;;;18.60;13.07;;;9.40;99.90;;;;;;5073919;28;20166;-68
2022/06/02 06:07:03;;;;;;;18.23;13.10;;;9.50;99.90;;;;;;5065381;28;20190;-67
2022/06/02 06:09:53;;;;;;;19.50;13.20;;;9.60;99.90;;;;;;5051368;28;20198;-68
2022/06/02 06:12:37;;;;;;;27.53;16.70;;;9.80;99.90;;;;;;5052260;28;20685;-68
2022/06/02 06:15:03;;;;;;;20.20;12.97;;;9.90;99.90;;;;;;5067832;28;20643;-68
2022/06/02 06:17:36;;;;;;;16.93;12.53;;;10.00;99.90;;;;;;5072142;28;20186;-69
2022/06/02 06:20:27;;;;;;;17.43;13.03;;;10.10;99.90;;;;;;5073475;28;20548;-69
2022/06/02 06:23:20;;;;;;;21.47;15.17;;;10.30;99.90;;;;;;5073454;28;20185;-69
2022/06/02 06:25:46;;;;;;;19.43;14.60;;;10.40;99.90;;;;;;5071874;28;20672;-69
2022/06/02 06:28:18;;;;;;;18.53;13.87;;;10.50;99.90;;;;;;5071806;28;20181;-69
2022/06/02 06:30:44;;;;;;;20.03;14.40;;;10.60;99.90;;;;;;5072333;28;20536;-69
2022/06/02 06:33:09;;;;;;;22.97;15.37;;;10.80;99.90;;;;;;5072036;28;20189;-69
2022/06/02 06:36:03;;;;;;;20.03;13.30;;;10.90;99.90;;;;;;5071862;28;20202;-69
2022/06/02 06:38:45;;;;;;;22.80;16.00;;;11.00;99.90;;;;;;5073234;28;20239;-69
2022/06/02 06:41:32;;;;;;;27.07;18.20;;;11.10;99.90;;;;;;5073301;28;20201;-70
2022/06/02 06:44:35;;;;;;;21.37;16.53;;;11.20;99.90;;;;;;5073702;28;20162;-69
2022/06/02 06:47:36;;;;;;;28.43;19.13;;;11.30;99.90;;;;;;5073418;28;20154;-69
2022/06/02 06:50:17;;;;;;;29.40;19.47;;;11.40;99.90;;;;;;5068532;28;20210;-68
2022/06/02 06:53:00;;;;;;;33.10;21.13;;;11.50;99.90;;;;;;5073041;28;20276;-68
2022/06/02 06:55:47;;;;;;;29.20;19.90;;;11.60;99.90;;;;;;5071432;28;20659;-68
2022/06/02 06:58:18;;;;;;;22.93;16.13;;;11.70;99.90;;;;;;5073025;28;20696;-68
2022/06/02 07:00:49;;;;;;;20.17;15.10;;;11.70;99.90;;;;;;5071706;28;20194;-68
2022/06/02 07:03:35;;;;;;;16.57;12.37;;;11.80;99.90;;;;;;5072987;28;20166;-68
2022/06/02 07:06:48;;;;;;;19.97;14.73;;;11.80;99.90;;;;;;5071750;28;20228;-68
2022/06/02 07:09:31;;;;;;;21.23;14.93;;;11.90;99.90;;;;;;5051498;28;20212;-68
2022/06/02 07:15:29;;;;;;;13.27;10.80;;;12.00;99.90;;;;;;5072789;28;20312;-66
2022/06/02 07:18:18;;;;;;;15.05;11.73;;;12.20;99.90;;;;;;5073075;28;20185;-68
2022/06/02 07:21:11;;;;;;;13.27;10.63;;;12.30;99.90;;;;;;5072885;28;20284;-68
2022/06/02 07:23:43;;;;;;;11.15;9.45;;;12.50;99.90;;;;;;5072717;28;20216;-69
2022/06/02 07:26:18;;;;;;;8.75;7.68;;;12.60;99.90;;;;;;5072571;28;20162;-68
2022/06/02 07:29:00;;;;;;;11.23;9.05;;;12.70;99.90;;;;;;5071447;28;20173;-68
2022/06/02 07:31:38;;;;;;;11.98;8.88;;;12.90;99.90;;;;;;5072705;28;20740;-68
2022/06/02 07:34:13;;;;;;;11.05;8.60;;;13.10;99.90;;;;;;5072737;28;20192;-68
2022/06/02 07:36:51;;;;;;;11.07;8.48;;;13.30;99.90;;;;;;5072549;28;20193;-68
2022/06/02 07:39:31;;;;;;;11.05;8.50;;;13.40;99.90;;;;;;5090101;28;20181;-68
2022/06/02 07:42:26;;;;;;;9.27;8.27;;;13.60;99.90;;;;;;5096157;28;20538;-68
2022/06/02 07:45:18;;;;;;;10.80;7.85;;;13.80;99.90;;;;;;5085314;28;20219;-68
2022/06/02 07:48:17;;;;;;;8.32;6.78;;;13.90;99.90;;;;;;5096599;28;20523;-68
2022/06/02 07:51:14;;;;;;;8.40;6.68;;;14.20;99.90;;;;;;5096122;28;20284;-68
2022/06/02 07:54:05;;;;;;;10.45;7.45;;;14.40;99.90;;;;;;5095852;28;20192;-68
2022/06/02 07:57:05;;;;;;;7.88;5.85;;;14.70;99.90;;;;;;5094626;28;20201;-68
2022/06/02 07:59:33;;;;;;;9.10;6.70;;;14.90;99.90;;;;;;5087805;28;20185;-68
2022/06/02 08:02:22;;;;;;;12.60;7.13;;;15.10;99.90;;;;;;5096028;28;20173;-68
2022/06/02 08:05:27;;;;;;;9.93;7.00;;;15.30;99.90;;;;;;5096126;28;20621;-68
2022/06/02 08:07:56;;;;;;;11.98;8.60;;;15.50;99.90;;;;;;5088485;28;20199;-68
2022/06/02 08:10:25;;;;;;;12.88;8.63;;;15.50;99.90;;;;;;5094278;28;20189;-68
2022/06/02 08:13:06;;;;;;;8.48;7.50;;;15.60;99.90;;;;;;5096220;28;20162;-68
2022/06/02 08:15:40;;;;;;;7.63;6.85;;;15.60;99.90;;;;;;5095777;28;20200;-68
2022/06/02 08:18:38;;;;;;;9.93;7.65;;;15.80;99.90;;;;;;5094883;28;20168;-68
2022/06/02 08:21:29;;;;;;;9.98;7.18;;;15.70;99.90;;;;;;5093463;28;20205;-68
2022/06/02 08:24:14;;;;;;;11.50;7.57;;;15.30;99.90;;;;;;5095922;28;20153;-67
2022/06/02 08:27:04;;;;;;;9.55;6.90;;;15.00;99.90;;;;;;5095431;28;20168;-68
2022/06/02 08:29:57;;;;;;;10.05;6.82;;;15.00;99.90;;;;;;5095473;28;20169;-68
2022/06/02 08:33:03;;;;;;;8.00;6.32;;;15.20;99.90;;;;;;5094404;28;20185;-68
2022/06/02 08:35:41;;;;;;;10.10;6.80;;;15.20;99.90;;;;;;5095567;28;20200;-68
2022/06/02 08:38:34;;;;;;;11.18;6.68;;;14.90;99.90;;;;;;5094357;28;20598;-68
2022/06/02 08:44:17;;;;;;;6.68;5.97;;;14.60;99.90;;;;;;5095835;28;20163;-68
2022/06/02 08:47:05;;;;;;;6.80;5.88;;;14.40;99.90;;;;;;5095805;28;20191;-68
2022/06/02 08:49:54;;;;;;;7.32;5.53;;;14.20;99.90;;;;;;5095392;28;20184;-68
2022/06/02 08:52:26;;;;;;;6.38;5.47;;;14.20;99.90;;;;;;5095942;28;20170;-68
2022/06/02 08:54:58;;;;;;;5.20;4.70;;;14.20;99.90;;;;;;5095749;28;20189;-68
2022/06/02 08:57:44;;;;;;;5.70;4.93;;;14.20;99.90;;;;;;5095284;28;20169;-68
2022/06/02 09:00:37;;;;;;;6.90;5.65;;;14.20;99.90;;;;;;5095137;28;20258;-68
2022/06/02 09:03:12;;;;;;;7.70;5.60;;;14.10;99.90;;;;;;5095702;28;20618;-68
2022/06/02 09:06:02;;;;;;;6.90;6.18;;;14.00;99.90;;;;;;5094027;28;20180;-68
2022/06/02 09:08:43;;;;;;;8.52;6.53;;;14.00;99.90;;;;;;5086432;28;20189;-68
2022/06/02 09:11:27;;;;;;;8.60;6.00;;;14.00;99.90;;;;;;5074651;28;20277;-68
2022/06/02 09:14:21;;;;;;;8.82;7.20;;;14.00;99.90;;;;;;5073305;28;20247;-68
2022/06/02 09:17:24;;;;;;;6.70;6.00;;;14.00;99.90;;;;;;5073891;28;20260;-68
2022/06/02 09:20:12;;;;;;;6.07;5.25;;;14.10;99.90;;;;;;5076264;28;20189;-68
2022/06/02 09:23:04;;;;;;;5.18;4.68;;;14.00;99.90;;;;;;5075746;28;20154;-68
2022/06/02 09:26:09;;;;;;;5.45;4.85;;;14.00;99.90;;;;;;5071829;28;20194;-68
2022/06/02 09:28:41;;;;;;;5.80;4.32;;;14.00;99.90;;;;;;5075088;28;20158;-68
2022/06/02 09:31:36;;;;;;;5.78;5.00;;;14.20;99.90;;;;;;5074690;28;20197;-68
2022/06/02 09:34:31;;;;;;;4.97;4.45;;;14.70;99.90;;;;;;5073275;28;20540;-68
2022/06/02 09:37:09;;;;;;;4.72;4.22;;;15.30;99.90;;;;;;5073137;28;20229;-68
2022/06/02 09:39:49;;;;;;;4.95;4.25;;;16.00;99.90;;;;;;5091542;28;20292;-68
2022/06/02 09:42:46;;;;;;;6.43;4.43;;;16.70;99.90;;;;;;5095122;28;20157;-68
2022/06/02 09:45:52;;;;;;;4.97;4.47;;;17.30;99.90;;;;;;5093532;28;20197;-68
2022/06/02 09:48:31;;;;;;;5.60;5.00;;;17.80;99.90;;;;;;5094724;28;20160;-68
2022/06/02 09:51:11;;;;;;;5.50;4.82;;;18.10;99.90;;;;;;5094799;28;20284;-68
2022/06/02 09:54:17;;;;;;;6.07;5.03;;;18.50;99.90;;;;;;5093199;28;20626;-68
2022/06/02 09:57:55;;;;;;;5.60;4.80;;;18.80;99.90;;;;;;5093116;28;20200;-68
2022/06/02 10:00:04;;;;;;;6.00;4.70;;;19.00;99.90;;;;;;5094434;28;20231;-73
2022/06/02 10:02:59;;;;;;;5.88;5.00;;;19.20;99.90;;;;;;5094452;28;20157;-74
2022/06/02 10:05:46;;;;;;;5.32;4.53;;;19.30;99.90;;;;;;5058317;28;20230;-68
2022/06/02 10:08:42;;;;;;;5.50;4.15;;;19.50;99.90;;;;;;5087157;28;20235;-68
2022/06/02 10:11:32;;;;;;;3.90;3.45;;;19.70;99.90;;;;;;5073604;28;20537;-68
2022/06/02 10:14:01;;;;;;;4.70;4.30;;;19.90;99.90;;;;;;5073529;28;20306;-68
2022/06/02 10:17:04;;;;;;;4.85;4.35;;;19.90;99.90;;;;;;5073509;28;20204;-68
2022/06/02 10:19:45;;;;;;;4.25;3.85;;;19.30;99.90;;;;;;5073487;28;20177;-68
2022/06/02 10:22:39;;;;;;;5.03;3.85;;;19.20;99.90;;;;;;5073488;28;20661;-68
2022/06/02 10:25:36;;;;;;;4.10;3.70;;;19.50;99.90;;;;;;5073103;28;20215;-68
2022/06/02 10:28:37;;;;;;;3.50;3.20;;;19.90;99.90;;;;;;5073400;28;20177;-68
2022/06/02 10:31:11;;;;;;;3.63;2.88;;;20.20;99.90;;;;;;5073460;28;20201;-76
2022/06/02 10:33:49;;;;;;;7.40;4.20;;;20.20;99.90;;;;;;5073261;28;20168;-68
2022/06/02 10:36:23;;;;;;;4.63;4.22;;;20.00;99.90;;;;;;5073391;28;20280;-68
2022/06/02 10:39:29;;;;;;;6.70;5.03;;;19.70;99.90;;;;;;5073515;28;20224;-72
2022/06/02 10:42:03;;;;;;;5.38;4.88;;;19.20;99.90;;;;;;5072007;28;20637;-72
2022/06/02 10:44:51;;;;;;;5.05;4.55;;;18.70;99.90;;;;;;5072334;28;20649;-75
2022/06/02 10:47:33;;;;;;;5.72;4.25;;;18.10;99.90;;;;;;5072048;28;20178;-68
2022/06/02 10:50:25;;;;;;;6.00;5.32;;;17.90;99.90;;;;;;5071757;28;20573;-68
2022/06/02 10:53:25;;;;;;;6.20;5.32;;;17.60;99.90;;;;;;5073576;28;20626;-77
2022/06/02 10:56:22;;;;;;;6.20;5.60;;;17.40;99.90;;;;;;5073060;28;20198;-69
2022/06/02 10:59:16;;;;;;;6.40;5.07;;;17.20;99.90;;;;;;5073246;28;20162;-68
2022/06/02 11:02:05;;;;;;;5.70;5.20;;;17.10;99.90;;;;;;5071705;28;20198;-66
2022/06/02 11:04:40;;;;;;;6.13;4.93;;;17.30;99.90;;;;;;5073318;28;20159;-67
2022/06/02 11:07:37;;;;;;;4.68;4.28;;;17.60;99.90;;;;;;5072888;28;20165;-66
2022/06/02 11:10:25;;;;;;;4.50;4.10;;;17.90;99.90;;;;;;5071629;28;20261;-66
2022/06/02 11:12:54;;;;;;;5.28;4.22;;;18.40;99.90;;;;;;5072785;28;20159;-66
2022/06/02 11:15:25;;;;;;;6.57;4.60;;;18.80;99.90;;;;;;5076275;28;20206;-71
2022/06/02 11:18:22;;;;;;;4.35;3.92;;;18.80;99.90;;;;;;5077131;28;20212;-68
2022/06/02 11:21:25;;;;;;;4.00;3.42;;;18.80;99.90;;;;;;5076675;28;20203;-69
2022/06/02 11:24:21;;;;;;;4.25;3.85;;;19.30;99.90;;;;;;5076507;28;20594;-66
2022/06/02 11:27:05;;;;;;;6.72;5.25;;;19.80;99.90;;;;;;5075162;28;20178;-69
2022/06/02 11:29:50;;;;;;;5.82;5.30;;;20.10;99.90;;;;;;5075503;28;20188;-69
2022/06/02 11:32:36;;;;;;;6.50;5.03;;;20.30;99.90;;;;;;5075243;28;20177;-69
2022/06/02 11:35:23;;;;;;;5.68;4.80;;;20.70;99.90;;;;;;5075365;28;20216;-68
2022/06/02 11:38:19;;;;;;;5.63;3.90;;;20.70;99.90;;;;;;5080001;28;20184;-69
2022/06/02 11:41:11;;;;;;;3.83;3.53;;;21.00;99.90;;;;;;5096634;28;20273;-69
2022/06/02 11:44:33;;;;;;;5.47;3.45;;;21.30;99.90;;;;;;5096873;28;20204;-69
2022/06/02 11:47:13;;;;;;;3.63;3.30;;;21.70;99.90;;;;;;5057306;28;20234;-69
2022/06/02 11:49:54;;;;;;;4.20;3.70;;;22.00;99.90;;;;;;5074208;28;20172;-69
2022/06/02 11:52:38;;;;;;;3.30;3.00;;;22.40;99.90;;;;;;5088807;28;20209;-69
2022/06/02 11:55:28;;;;;;;5.90;4.05;;;22.80;99.90;;;;;;5095015;28;20208;-69
2022/06/02 11:58:24;;;;;;;3.90;3.40;;;23.00;99.90;;;;;;5096202;28;20181;-69
2022/06/02 12:01:40;;;;;;;6.03;3.90;;;23.10;99.90;;;;;;5094873;28;20228;-67
2022/06/02 12:04:15;;;;;;;3.58;3.28;;;22.80;99.90;;;;;;5077716;28;20188;-69
2022/06/02 12:07:09;;;;;;;5.03;4.40;;;22.70;99.90;;;;;;5096022;28;20177;-69
2022/06/02 12:09:44;;;;;;;3.30;3.00;;;21.90;99.90;;;;;;5096010;28;20208;-69
2022/06/02 12:12:22;;;;;;;3.65;3.35;;;21.20;99.90;;;;;;5094439;28;20180;-69
2022/06/02 12:14:59;;;;;;;3.97;3.58;;;21.30;99.90;;;;;;5094450;28;20556;-69
2022/06/02 12:17:48;;;;;;;3.88;3.00;;;21.30;99.90;;;;;;5094703;28;20248;-68
2022/06/02 12:20:52;;;;;;;3.78;3.47;;;21.20;99.90;;;;;;5095861;28;20208;-68
2022/06/02 12:23:45;;;;;;;4.40;3.88;;;20.90;99.90;;;;;;5087527;28;20185;-69
2022/06/02 12:26:31;;;;;;;3.45;3.15;;;20.60;99.90;;;;;;5095345;28;20237;-69
2022/06/02 12:29:31;;;;;;;3.92;3.53;;;20.90;99.90;;;;;;5094148;28;20276;-69
2022/06/02 12:32:10;;;;;;;5.90;3.08;;;21.20;99.90;;;;;;5096009;28;20164;-69
2022/06/02 12:35:05;;;;;;;3.88;3.40;;;21.90;99.90;;;;;;5094638;28;20168;-69
2022/06/02 12:37:52;;;;;;;6.00;4.65;;;22.30;99.90;;;;;;5095623;28;20164;-69
2022/06/02 12:40:33;;;;;;;4.13;3.72;;;22.50;99.90;;;;;;5094450;28;20767;-69
2022/06/02 12:43:25;;;;;;;4.10;3.05;;;22.90;99.90;;;;;;5095339;28;20161;-67
2022/06/02 12:46:11;;;;;;;3.55;3.10;;;23.50;99.90;;;;;;5094041;28;20629;-66
2022/06/02 12:49:12;;;;;;;3.60;3.08;;;23.40;99.90;;;;;;5095208;28;20197;-66
2022/06/02 12:52:36;;;;;;;3.20;2.92;;;23.50;99.90;;;;;;5093873;28;20573;-68
2022/06/02 12:55:19;;;;;;;3.15;2.85;;;23.60;99.90;;;;;;5032900;28;20203;-67
2022/06/02 12:58:23;;;;;;;5.85;2.95;;;24.00;99.90;;;;;;5089534;28;20551;-67
2022/06/02 13:01:01;;;;;;;4.13;3.72;;;24.40;99.90;;;;;;5095418;28;20207;-66
2022/06/02 13:03:45;;;;;;;3.88;3.47;;;24.30;99.90;;;;;;5095300;28;20513;-66
2022/06/02 13:06:46;;;;;;;5.18;3.28;;;24.20;99.90;;;;;;5095243;28;20157;-66
2022/06/02 13:09:50;;;;;;;3.60;3.15;;;24.10;99.90;;;;;;5094042;28;20669;-68
2022/06/02 13:12:40;;;;;;;3.47;3.05;;;24.40;99.90;;;;;;5093461;28;20177;-69
2022/06/02 13:15:30;;;;;;;5.43;3.60;;;24.70;99.90;;;;;;5094552;28;20549;-69
2022/06/02 13:17:56;;;;;;;4.15;3.10;;;24.60;99.90;;;;;;5094722;28;20170;-67
2022/06/02 13:20:28;;;;;;;4.72;4.15;;;24.70;99.90;;;;;;5094571;28;20192;-66
2022/06/02 13:23:20;;;;;;;5.07;3.60;;;24.10;99.90;;;;;;5094681;28;20169;-66
2022/06/02 13:26:12;;;;;;;3.72;3.30;;;24.00;99.90;;;;;;5093691;28;20227;-67
2022/06/02 13:28:50;;;;;;;3.13;2.83;;;23.90;99.90;;;;;;5094578;28;20173;-66
2022/06/02 13:31:33;;;;;;;4.25;2.78;;;24.40;99.90;;;;;;5093796;28;20205;-67
2022/06/02 13:34:31;;;;;;;4.10;2.70;;;24.80;99.90;;;;;;5094463;28;20161;-67
2022/06/02 13:37:09;;;;;;;2.88;2.58;;;25.20;99.90;;;;;;5084233;28;20217;-67
2022/06/02 13:39:51;;;;;;;2.88;2.55;;;25.50;99.90;;;;;;5093199;28;20208;-67
2022/06/02 13:43:03;;;;;;;2.80;2.60;;;26.00;99.90;;;;;;5094203;28;20169;-67
2022/06/02 13:46:06;;;;;;;3.60;2.47;;;26.00;99.90;;;;;;5075066;28;20273;-68
2022/06/02 13:48:53;;;;;;;2.53;2.08;;;26.10;99.90;;;;;;5075118;28;20238;-72
2022/06/02 13:51:46;;;;;;;4.13;2.50;;;26.40;99.90;;;;;;5095843;28;20294;-71
2022/06/02 13:57:44;;;;;;;3.13;2.50;;;25.10;99.90;;;;;;5094369;28;20187;-70
2022/06/02 14:00:22;;;;;;;3.97;2.40;;;25.40;99.90;;;;;;5092843;28;20249;-70
2022/06/02 14:03:21;;;;;;;3.50;2.90;;;25.70;99.90;;;;;;5094580;28;20571;-69
2022/06/02 14:06:05;;;;;;;2.72;2.50;;;26.00;99.90;;;;;;5094395;28;20157;-66
2022/06/02 14:08:41;;;;;;;2.50;2.30;;;26.20;99.90;;;;;;5092902;28;20177;-66
2022/06/02 14:11:32;;;;;;;2.70;2.50;;;26.20;99.90;;;;;;5092701;28;20200;-66
2022/06/02 14:14:23;;;;;;;2.40;2.20;;;26.30;99.90;;;;;;5092663;28;20200;-66
2022/06/02 14:17:10;;;;;;;3.83;2.28;;;26.80;99.90;;;;;;5093931;28;20189;-66
2022/06/02 14:20:16;;;;;;;2.65;2.30;;;26.80;99.90;;;;;;5094188;28;20173;-66
2022/06/02 14:22:53;;;;;;;3.45;2.40;;;26.90;99.90;;;;;;5083405;28;20185;-67
2022/06/02 14:25:34;;;;;;;2.70;2.50;;;27.10;99.90;;;;;;5092907;28;20641;-66
2022/06/02 14:28:19;;;;;;;2.13;1.92;;;26.90;99.90;;;;;;5092693;28;20165;-66
2022/06/02 14:31:08;;;;;;;2.75;2.20;;;26.80;99.90;;;;;;5093982;28;20211;-69
2022/06/02 14:33:37;;;;;;;2.70;2.42;;;26.80;99.90;;;;;;5094253;28;20236;-68
2022/06/02 14:36:11;;;;;;;3.63;2.00;;;26.50;99.90;;;;;;5094639;28;20637;-68
2022/06/02 14:38:54;;;;;;;2.03;1.85;;;26.60;99.90;;;;;;5094451;28;20177;-69